Aérodrome :
LOGIN :

S'inscrire | Disclaimer

   EN    FR    IT 

 










Légende :    VFR   VFR Marginal   IFR   IFR Intensif   IFR Très Intensif
Visi : 
Plafond : 
>= 8 km
>= 3000ft
5 à 8 km
1000 à 3000 ft
1500m à 5 km
500 à 1000 ft
800 à 1500m
200 à 500 ft
< 800m
< 200 ft
Symboles :   Orages  Brouillard  Fortes neiges  Fortes précipitations  Vent > 20 kt
SIGMETs :   Divers  Orages  Givrage  Turbulence  Onde Orograph.  Cendres Volcan.






- Altitude de l'aérodrome : 36 ft
- Code IATA : LTQ


LFAT - Le Touquet

DERNIER METAR :
  • 141130Z AUTO 23008KT 200V280 9999 FEW036 BKN048 BKN054 17/11 Q1005 TEMPO 4000 SHRA BKN020CB

METARs EXPIRÉS :
  • 141100Z AUTO 23013KT 200V260 8000 FEW021 OVC052 16/11 Q1005 TEMPO 3000 RADZ OVC009
  • 141030Z AUTO 24013KT 210V270 8000 FEW018 OVC054 16/11 Q1005 TEMPO 3000 RADZ OVC009
  • 141000Z AUTO 24012KT 210V270 8000 OVC048 16/11 Q1005 TEMPO 3000 RADZ OVC009
  • 140930Z AUTO 25010KT 220V280 8000 FEW009 BKN016 BKN025 15/12 Q1005 TEMPO 3000 RADZ OVC009
  • 140900Z AUTO 22011KT 190V260 9000 -DZ SCT008 BKN012 BKN018 14/13 Q1005 TEMPO 3000 RADZ OVC009
  • 140830Z AUTO 22011KT 180V240 9999 -RA BKN011 BKN029 OVC034 15/13 Q1005 TEMPO 3000 RADZ OVC009
  • 140800Z AUTO 21009KT 170V250 9999 OVC012 15/12 Q1005 TEMPO 3000 RADZ OVC009
  • 140730Z AUTO 21008KT 160V240 9999 OVC012 14/13 Q1005 TEMPO 3000 RADZ OVC009
  • 140700Z AUTO 21007KT 170V250 9999 OVC007 13/13 Q1005 TEMPO 3000 RADZ

TAF TAF LFAT
Valide du 14 à 12h jusqu'au 14 à 21h UTC


141100Z 1412/1421 23010KT 9999 BKN020
TEMPO 1412/1421 4000 SHRA BKN020CB
PROB30
TEMPO 1418/1420 1500 TSRA
ATIS : +33 3 21 06 62 84



MET'MAP, la Météo Aéronautique d'un coup d'oeil ! - Copyright ORBIFLY Décembre 2007 - Disclaimer

ORBIFLY MET'MAP TEAM :

Programmation & Développement : Alexandra Zaïnal
Sur une idée originale de : Baudouin d'Aumeries
Soutien technique & logistique : Manuel Goepfert
Assistance : Marc-Olivier Méhu




SOURCES & CREDITS :

   NOAA